sensor_id;sensor_type;location;lat;lon;timestamp;P1;durP1;ratioP1;P2;durP2;ratioP2
48667;SDS011;34453;52.198;5.004;2023-08-30T00:00:14;6.90;;;4.68;;
48667;SDS011;34453;52.198;5.004;2023-08-30T00:02:42;4.70;;;4.40;;
48667;SDS011;34453;52.198;5.004;2023-08-30T00:05:09;4.80;;;4.40;;
48667;SDS011;34453;52.198;5.004;2023-08-30T00:07:35;4.13;;;3.80;;
48667;SDS011;34453;52.198;5.004;2023-08-30T00:10:00;4.68;;;4.30;;
48667;SDS011;34453;52.198;5.004;2023-08-30T00:12:26;4.22;;;3.60;;
48667;SDS011;34453;52.198;5.004;2023-08-30T00:14:52;4.35;;;3.95;;
48667;SDS011;34453;52.198;5.004;2023-08-30T00:17:17;4.97;;;4.68;;
48667;SDS011;34453;52.198;5.004;2023-08-30T00:19:44;5.00;;;4.20;;
48667;SDS011;34453;52.198;5.004;2023-08-30T00:22:10;4.20;;;3.90;;
48667;SDS011;34453;52.198;5.004;2023-08-30T00:24:37;4.97;;;4.70;;
48667;SDS011;34453;52.198;5.004;2023-08-30T00:27:03;5.70;;;5.18;;
48667;SDS011;34453;52.198;5.004;2023-08-30T00:29:29;5.15;;;4.80;;
48667;SDS011;34453;52.198;5.004;2023-08-30T00:31:55;5.25;;;4.95;;
48667;SDS011;34453;52.198;5.004;2023-08-30T00:34:20;5.38;;;5.00;;
48667;SDS011;34453;52.198;5.004;2023-08-30T00:36:45;5.45;;;4.22;;
48667;SDS011;34453;52.198;5.004;2023-08-30T00:39:11;6.15;;;5.75;;
48667;SDS011;34453;52.198;5.004;2023-08-30T00:41:38;6.68;;;4.80;;
48667;SDS011;34453;52.198;5.004;2023-08-30T00:44:03;7.93;;;4.75;;
48667;SDS011;34453;52.198;5.004;2023-08-30T00:46:29;6.63;;;6.03;;
48667;SDS011;34453;52.198;5.004;2023-08-30T00:48:55;5.85;;;5.40;;
48667;SDS011;34453;52.198;5.004;2023-08-30T00:51:21;7.32;;;4.97;;
48667;SDS011;34453;52.198;5.004;2023-08-30T00:53:47;5.72;;;5.22;;
48667;SDS011;34453;52.198;5.004;2023-08-30T00:56:14;6.68;;;6.18;;
48667;SDS011;34453;52.198;5.004;2023-08-30T00:58:40;5.75;;;5.30;;
48667;SDS011;34453;52.198;5.004;2023-08-30T01:01:05;7.03;;;6.05;;
48667;SDS011;34453;52.198;5.004;2023-08-30T01:03:34;8.15;;;5.78;;
48667;SDS011;34453;52.198;5.004;2023-08-30T01:06:00;6.40;;;5.90;;
48667;SDS011;34453;52.198;5.004;2023-08-30T01:08:26;6.88;;;6.25;;
48667;SDS011;34453;52.198;5.004;2023-08-30T01:13:56;6.97;;;6.28;;
48667;SDS011;34453;52.198;5.004;2023-08-30T01:16:23;7.30;;;6.03;;
48667;SDS011;34453;52.198;5.004;2023-08-30T01:18:50;6.75;;;6.10;;
48667;SDS011;34453;52.198;5.004;2023-08-30T01:21:30;6.72;;;5.85;;
48667;SDS011;34453;52.198;5.004;2023-08-30T01:24:07;7.10;;;6.28;;
48667;SDS011;34453;52.198;5.004;2023-08-30T01:26:45;7.63;;;6.18;;
48667;SDS011;34453;52.198;5.004;2023-08-30T01:29:33;6.90;;;5.90;;
48667;SDS011;34453;52.198;5.004;2023-08-30T01:31:59;7.97;;;6.95;;
48667;SDS011;34453;52.198;5.004;2023-08-30T01:34:26;5.80;;;5.40;;
48667;SDS011;34453;52.198;5.004;2023-08-30T01:36:52;7.78;;;6.20;;
48667;SDS011;34453;52.198;5.004;2023-08-30T01:39:17;6.95;;;6.38;;
48667;SDS011;34453;52.198;5.004;2023-08-30T01:41:46;8.57;;;6.40;;
48667;SDS011;34453;52.198;5.004;2023-08-30T01:44:12;8.75;;;6.53;;
48667;SDS011;34453;52.198;5.004;2023-08-30T01:46:41;8.18;;;6.85;;
48667;SDS011;34453;52.198;5.004;2023-08-30T01:49:09;7.43;;;6.72;;
48667;SDS011;34453;52.198;5.004;2023-08-30T01:51:36;7.18;;;6.57;;
48667;SDS011;34453;52.198;5.004;2023-08-30T01:54:02;7.32;;;6.47;;
48667;SDS011;34453;52.198;5.004;2023-08-30T01:56:29;7.07;;;6.38;;
48667;SDS011;34453;52.198;5.004;2023-08-30T01:58:54;7.63;;;6.93;;
48667;SDS011;34453;52.198;5.004;2023-08-30T02:01:20;7.35;;;6.65;;
48667;SDS011;34453;52.198;5.004;2023-08-30T02:03:45;7.45;;;6.65;;
48667;SDS011;34453;52.198;5.004;2023-08-30T02:06:27;7.57;;;6.85;;
48667;SDS011;34453;52.198;5.004;2023-08-30T02:08:56;8.32;;;7.38;;
48667;SDS011;34453;52.198;5.004;2023-08-30T02:11:28;8.38;;;7.03;;
48667;SDS011;34453;52.198;5.004;2023-08-30T02:13:58;8.88;;;8.00;;
48667;SDS011;34453;52.198;5.004;2023-08-30T02:16:25;7.70;;;6.97;;
48667;SDS011;34453;52.198;5.004;2023-08-30T02:18:51;11.10;;;8.10;;
48667;SDS011;34453;52.198;5.004;2023-08-30T02:21:17;9.38;;;7.45;;
48667;SDS011;34453;52.198;5.004;2023-08-30T02:23:43;7.50;;;6.80;;
48667;SDS011;34453;52.198;5.004;2023-08-30T02:26:08;8.60;;;7.68;;
48667;SDS011;34453;52.198;5.004;2023-08-30T02:28:34;12.20;;;8.05;;
48667;SDS011;34453;52.198;5.004;2023-08-30T02:30:59;11.48;;;8.18;;
48667;SDS011;34453;52.198;5.004;2023-08-30T02:33:25;9.23;;;8.25;;
48667;SDS011;34453;52.198;5.004;2023-08-30T02:35:50;9.45;;;8.00;;
48667;SDS011;34453;52.198;5.004;2023-08-30T02:38:16;10.93;;;8.10;;
48667;SDS011;34453;52.198;5.004;2023-08-30T02:40:42;9.23;;;7.82;;
48667;SDS011;34453;52.198;5.004;2023-08-30T02:43:07;9.02;;;8.05;;
48667;SDS011;34453;52.198;5.004;2023-08-30T02:45:33;9.13;;;8.23;;
48667;SDS011;34453;52.198;5.004;2023-08-30T02:47:58;9.25;;;8.32;;
48667;SDS011;34453;52.198;5.004;2023-08-30T02:50:24;9.23;;;8.32;;
48667;SDS011;34453;52.198;5.004;2023-08-30T02:52:50;12.43;;;8.82;;
48667;SDS011;34453;52.198;5.004;2023-08-30T02:55:15;8.90;;;8.10;;
48667;SDS011;34453;52.198;5.004;2023-08-30T02:57:41;9.25;;;8.27;;
48667;SDS011;34453;52.198;5.004;2023-08-30T03:00:06;8.25;;;7.40;;
48667;SDS011;34453;52.198;5.004;2023-08-30T03:02:33;10.40;;;9.13;;
48667;SDS011;34453;52.198;5.004;2023-08-30T03:04:59;9.23;;;7.85;;
48667;SDS011;34453;52.198;5.004;2023-08-30T03:07:25;9.75;;;8.75;;
48667;SDS011;34453;52.198;5.004;2023-08-30T03:09:53;8.82;;;7.93;;
48667;SDS011;34453;52.198;5.004;2023-08-30T03:12:19;9.52;;;8.27;;
48667;SDS011;34453;52.198;5.004;2023-08-30T03:14:44;9.77;;;8.40;;
48667;SDS011;34453;52.198;5.004;2023-08-30T03:17:10;9.55;;;8.73;;
48667;SDS011;34453;52.198;5.004;2023-08-30T03:19:35;9.52;;;8.60;;
48667;SDS011;34453;52.198;5.004;2023-08-30T03:22:01;8.98;;;7.50;;
48667;SDS011;34453;52.198;5.004;2023-08-30T03:24:26;9.50;;;8.50;;
48667;SDS011;34453;52.198;5.004;2023-08-30T03:26:51;10.15;;;8.75;;
48667;SDS011;34453;52.198;5.004;2023-08-30T03:29:17;10.02;;;8.95;;
48667;SDS011;34453;52.198;5.004;2023-08-30T03:31:42;12.77;;;8.30;;
48667;SDS011;34453;52.198;5.004;2023-08-30T03:34:08;10.32;;;8.23;;
48667;SDS011;34453;52.198;5.004;2023-08-30T03:36:34;11.55;;;8.68;;
48667;SDS011;34453;52.198;5.004;2023-08-30T03:39:00;9.82;;;8.55;;
48667;SDS011;34453;52.198;5.004;2023-08-30T03:41:25;11.82;;;7.97;;
48667;SDS011;34453;52.198;5.004;2023-08-30T03:43:51;8.50;;;7.18;;
48667;SDS011;34453;52.198;5.004;2023-08-30T03:46:16;9.80;;;8.13;;
48667;SDS011;34453;52.198;5.004;2023-08-30T03:48:42;9.73;;;7.93;;
48667;SDS011;34453;52.198;5.004;2023-08-30T03:51:07;8.32;;;7.32;;
48667;SDS011;34453;52.198;5.004;2023-08-30T03:53:33;10.52;;;8.40;;
48667;SDS011;34453;52.198;5.004;2023-08-30T03:55:58;10.00;;;7.43;;
48667;SDS011;34453;52.198;5.004;2023-08-30T03:58:24;12.52;;;8.55;;
48667;SDS011;34453;52.198;5.004;2023-08-30T04:00:50;8.77;;;7.90;;
48667;SDS011;34453;52.198;5.004;2023-08-30T04:03:15;8.88;;;7.97;;
48667;SDS011;34453;52.198;5.004;2023-08-30T04:05:41;9.00;;;8.10;;
48667;SDS011;34453;52.198;5.004;2023-08-30T04:08:07;9.50;;;7.60;;
48667;SDS011;34453;52.198;5.004;2023-08-30T04:10:40;11.90;;;8.75;;
48667;SDS011;34453;52.198;5.004;2023-08-30T04:13:07;10.32;;;7.50;;
48667;SDS011;34453;52.198;5.004;2023-08-30T04:15:37;9.27;;;7.90;;
48667;SDS011;34453;52.198;5.004;2023-08-30T04:18:03;9.70;;;7.78;;
48667;SDS011;34453;52.198;5.004;2023-08-30T04:20:29;12.43;;;8.45;;
48667;SDS011;34453;52.198;5.004;2023-08-30T04:22:55;10.77;;;8.00;;
48667;SDS011;34453;52.198;5.004;2023-08-30T04:25:21;16.27;;;9.63;;
48667;SDS011;34453;52.198;5.004;2023-08-30T04:27:47;12.02;;;8.52;;
48667;SDS011;34453;52.198;5.004;2023-08-30T04:30:13;9.07;;;8.18;;
48667;SDS011;34453;52.198;5.004;2023-08-30T04:32:38;9.63;;;8.63;;
48667;SDS011;34453;52.198;5.004;2023-08-30T04:35:05;12.32;;;7.63;;
48667;SDS011;34453;52.198;5.004;2023-08-30T04:37:31;8.85;;;7.95;;
48667;SDS011;34453;52.198;5.004;2023-08-30T04:39:59;11.57;;;8.23;;
48667;SDS011;34453;52.198;5.004;2023-08-30T04:42:25;9.82;;;7.93;;
48667;SDS011;34453;52.198;5.004;2023-08-30T04:44:50;11.10;;;8.43;;
48667;SDS011;34453;52.198;5.004;2023-08-30T04:47:19;9.70;;;8.80;;
48667;SDS011;34453;52.198;5.004;2023-08-30T04:49:49;10.20;;;7.40;;
48667;SDS011;34453;52.198;5.004;2023-08-30T04:52:15;11.90;;;7.53;;
48667;SDS011;34453;52.198;5.004;2023-08-30T04:54:40;15.18;;;8.48;;
48667;SDS011;34453;52.198;5.004;2023-08-30T04:57:07;9.35;;;7.63;;
48667;SDS011;34453;52.198;5.004;2023-08-30T04:59:33;8.80;;;7.50;;
48667;SDS011;34453;52.198;5.004;2023-08-30T05:01:58;12.20;;;7.90;;
48667;SDS011;34453;52.198;5.004;2023-08-30T05:04:24;8.50;;;7.25;;
48667;SDS011;34453;52.198;5.004;2023-08-30T05:06:49;8.20;;;7.43;;
48667;SDS011;34453;52.198;5.004;2023-08-30T05:09:15;12.15;;;7.97;;
48667;SDS011;34453;52.198;5.004;2023-08-30T05:11:40;7.65;;;6.93;;
48667;SDS011;34453;52.198;5.004;2023-08-30T05:14:06;7.38;;;6.68;;
48667;SDS011;34453;52.198;5.004;2023-08-30T05:16:32;8.15;;;7.38;;
48667;SDS011;34453;52.198;5.004;2023-08-30T05:18:57;7.10;;;6.07;;
48667;SDS011;34453;52.198;5.004;2023-08-30T05:21:22;7.03;;;6.28;;
48667;SDS011;34453;52.198;5.004;2023-08-30T05:23:48;9.35;;;6.55;;
48667;SDS011;34453;52.198;5.004;2023-08-30T05:26:13;8.48;;;6.50;;
48667;SDS011;34453;52.198;5.004;2023-08-30T05:28:39;6.97;;;6.28;;
48667;SDS011;34453;52.198;5.004;2023-08-30T05:31:04;7.70;;;6.80;;
48667;SDS011;34453;52.198;5.004;2023-08-30T05:33:31;8.10;;;6.63;;
48667;SDS011;34453;52.198;5.004;2023-08-30T05:35:56;7.20;;;5.97;;
48667;SDS011;34453;52.198;5.004;2023-08-30T05:38:22;7.88;;;6.32;;
48667;SDS011;34453;52.198;5.004;2023-08-30T05:40:47;7.53;;;5.63;;
48667;SDS011;34453;52.198;5.004;2023-08-30T05:43:12;7.72;;;6.82;;
48667;SDS011;34453;52.198;5.004;2023-08-30T05:45:38;6.90;;;6.30;;
48667;SDS011;34453;52.198;5.004;2023-08-30T05:48:04;7.32;;;6.60;;
48667;SDS011;34453;52.198;5.004;2023-08-30T05:50:30;8.63;;;7.53;;
48667;SDS011;34453;52.198;5.004;2023-08-30T05:52:55;11.80;;;7.53;;
48667;SDS011;34453;52.198;5.004;2023-08-30T05:55:21;9.20;;;8.18;;
48667;SDS011;34453;52.198;5.004;2023-08-30T05:57:46;8.93;;;7.30;;
48667;SDS011;34453;52.198;5.004;2023-08-30T06:00:12;10.85;;;7.05;;
48667;SDS011;34453;52.198;5.004;2023-08-30T06:02:38;11.98;;;8.80;;
48667;SDS011;34453;52.198;5.004;2023-08-30T06:05:04;9.23;;;8.32;;
48667;SDS011;34453;52.198;5.004;2023-08-30T06:07:30;17.35;;;9.65;;
48667;SDS011;34453;52.198;5.004;2023-08-30T06:09:55;10.95;;;8.57;;
48667;SDS011;34453;52.198;5.004;2023-08-30T06:12:21;11.40;;;8.55;;
48667;SDS011;34453;52.198;5.004;2023-08-30T06:14:46;15.30;;;8.57;;
48667;SDS011;34453;52.198;5.004;2023-08-30T06:17:17;10.60;;;8.82;;
48667;SDS011;34453;52.198;5.004;2023-08-30T06:19:45;13.93;;;10.18;;
48667;SDS011;34453;52.198;5.004;2023-08-30T06:22:11;11.38;;;8.73;;
48667;SDS011;34453;52.198;5.004;2023-08-30T06:24:37;12.98;;;9.98;;
48667;SDS011;34453;52.198;5.004;2023-08-30T06:27:03;9.90;;;8.48;;
48667;SDS011;34453;52.198;5.004;2023-08-30T06:29:28;12.45;;;9.50;;
48667;SDS011;34453;52.198;5.004;2023-08-30T06:31:54;12.95;;;8.38;;
48667;SDS011;34453;52.198;5.004;2023-08-30T06:34:19;10.30;;;9.27;;
48667;SDS011;34453;52.198;5.004;2023-08-30T06:36:45;14.10;;;12.25;;
48667;SDS011;34453;52.198;5.004;2023-08-30T06:39:10;9.77;;;8.98;;
48667;SDS011;34453;52.198;5.004;2023-08-30T06:41:36;11.38;;;9.75;;
48667;SDS011;34453;52.198;5.004;2023-08-30T06:44:01;13.88;;;10.55;;
48667;SDS011;34453;52.198;5.004;2023-08-30T06:46:27;11.13;;;9.52;;
48667;SDS011;34453;52.198;5.004;2023-08-30T06:48:52;9.20;;;8.07;;
48667;SDS011;34453;52.198;5.004;2023-08-30T06:51:17;14.85;;;9.57;;
48667;SDS011;34453;52.198;5.004;2023-08-30T06:53:43;9.45;;;8.52;;
48667;SDS011;34453;52.198;5.004;2023-08-30T06:56:08;10.18;;;8.90;;
48667;SDS011;34453;52.198;5.004;2023-08-30T06:58:34;15.65;;;8.63;;
48667;SDS011;34453;52.198;5.004;2023-08-30T07:00:59;12.77;;;8.95;;
48667;SDS011;34453;52.198;5.004;2023-08-30T07:03:25;9.15;;;8.15;;
48667;SDS011;34453;52.198;5.004;2023-08-30T07:05:51;10.52;;;9.43;;
48667;SDS011;34453;52.198;5.004;2023-08-30T07:08:17;13.88;;;9.10;;
48667;SDS011;34453;52.198;5.004;2023-08-30T07:10:42;11.25;;;9.50;;
48667;SDS011;34453;52.198;5.004;2023-08-30T07:13:08;11.00;;;8.85;;
48667;SDS011;34453;52.198;5.004;2023-08-30T07:15:37;11.35;;;8.75;;
48667;SDS011;34453;52.198;5.004;2023-08-30T07:18:07;12.80;;;9.20;;
48667;SDS011;34453;52.198;5.004;2023-08-30T07:20:33;14.82;;;8.70;;
48667;SDS011;34453;52.198;5.004;2023-08-30T07:23:02;9.27;;;7.13;;
48667;SDS011;34453;52.198;5.004;2023-08-30T07:25:31;9.38;;;7.82;;
48667;SDS011;34453;52.198;5.004;2023-08-30T07:27:58;10.15;;;7.68;;
48667;SDS011;34453;52.198;5.004;2023-08-30T07:30:24;8.00;;;7.20;;
48667;SDS011;34453;52.198;5.004;2023-08-30T07:32:50;9.48;;;7.40;;
48667;SDS011;34453;52.198;5.004;2023-08-30T07:35:15;11.85;;;8.07;;
48667;SDS011;34453;52.198;5.004;2023-08-30T07:37:41;7.85;;;7.15;;
48667;SDS011;34453;52.198;5.004;2023-08-30T07:40:07;8.40;;;7.60;;
48667;SDS011;34453;52.198;5.004;2023-08-30T07:42:33;8.77;;;7.93;;
48667;SDS011;34453;52.198;5.004;2023-08-30T07:44:59;10.90;;;6.75;;
48667;SDS011;34453;52.198;5.004;2023-08-30T07:47:24;8.93;;;7.65;;
48667;SDS011;34453;52.198;5.004;2023-08-30T07:49:49;7.82;;;7.13;;
48667;SDS011;34453;52.198;5.004;2023-08-30T07:52:15;7.15;;;6.63;;
48667;SDS011;34453;52.198;5.004;2023-08-30T07:54:40;7.38;;;6.68;;
48667;SDS011;34453;52.198;5.004;2023-08-30T07:57:06;9.00;;;6.50;;
48667;SDS011;34453;52.198;5.004;2023-08-30T07:59:33;6.43;;;5.85;;
48667;SDS011;34453;52.198;5.004;2023-08-30T08:01:59;7.20;;;6.72;;
48667;SDS011;34453;52.198;5.004;2023-08-30T08:04:24;5.28;;;4.88;;
48667;SDS011;34453;52.198;5.004;2023-08-30T08:06:50;6.00;;;5.60;;
48667;SDS011;34453;52.198;5.004;2023-08-30T08:09:15;5.47;;;5.07;;
48667;SDS011;34453;52.198;5.004;2023-08-30T08:11:41;6.32;;;4.35;;
48667;SDS011;34453;52.198;5.004;2023-08-30T08:14:08;4.60;;;4.30;;
48667;SDS011;34453;52.198;5.004;2023-08-30T08:16:35;4.22;;;3.92;;
48667;SDS011;34453;52.198;5.004;2023-08-30T08:19:01;6.15;;;4.60;;
48667;SDS011;34453;52.198;5.004;2023-08-30T08:21:26;5.72;;;5.18;;
48667;SDS011;34453;52.198;5.004;2023-08-30T08:23:52;4.53;;;4.13;;
48667;SDS011;34453;52.198;5.004;2023-08-30T08:26:17;5.05;;;4.60;;
48667;SDS011;34453;52.198;5.004;2023-08-30T08:28:43;4.50;;;4.30;;
48667;SDS011;34453;52.198;5.004;2023-08-30T08:31:09;5.00;;;4.60;;
48667;SDS011;34453;52.198;5.004;2023-08-30T08:33:35;4.97;;;4.55;;
48667;SDS011;34453;52.198;5.004;2023-08-30T08:36:00;4.60;;;4.30;;
48667;SDS011;34453;52.198;5.004;2023-08-30T08:38:26;5.03;;;4.72;;
48667;SDS011;34453;52.198;5.004;2023-08-30T08:41:00;4.78;;;4.47;;
48667;SDS011;34453;52.198;5.004;2023-08-30T08:43:28;5.43;;;4.70;;
48667;SDS011;34453;52.198;5.004;2023-08-30T08:45:56;4.93;;;4.63;;
48667;SDS011;34453;52.198;5.004;2023-08-30T08:48:25;7.45;;;5.40;;
48667;SDS011;34453;52.198;5.004;2023-08-30T08:50:53;4.78;;;4.47;;
48667;SDS011;34453;52.198;5.004;2023-08-30T08:53:20;5.60;;;5.20;;
48667;SDS011;34453;52.198;5.004;2023-08-30T08:55:46;5.78;;;5.25;;
48667;SDS011;34453;52.198;5.004;2023-08-30T08:58:14;5.15;;;4.75;;
48667;SDS011;34453;52.198;5.004;2023-08-30T09:00:43;5.45;;;5.05;;
48667;SDS011;34453;52.198;5.004;2023-08-30T09:03:10;5.55;;;5.20;;
48667;SDS011;34453;52.198;5.004;2023-08-30T09:05:39;6.10;;;5.15;;
48667;SDS011;34453;52.198;5.004;2023-08-30T09:08:05;5.80;;;5.30;;
48667;SDS011;34453;52.198;5.004;2023-08-30T09:10:32;5.50;;;5.05;;
48667;SDS011;34453;52.198;5.004;2023-08-30T09:12:58;6.70;;;6.28;;
48667;SDS011;34453;52.198;5.004;2023-08-30T09:15:30;6.47;;;5.53;;
48667;SDS011;34453;52.198;5.004;2023-08-30T09:17:58;6.57;;;6.18;;
48667;SDS011;34453;52.198;5.004;2023-08-30T09:20:24;7.40;;;5.63;;
48667;SDS011;34453;52.198;5.004;2023-08-30T09:22:49;7.00;;;6.40;;
48667;SDS011;34453;52.198;5.004;2023-08-30T09:25:25;6.40;;;6.00;;
48667;SDS011;34453;52.198;5.004;2023-08-30T09:27:58;6.38;;;5.88;;
48667;SDS011;34453;52.198;5.004;2023-08-30T09:30:26;7.95;;;7.35;;
48667;SDS011;34453;52.198;5.004;2023-08-30T09:32:52;8.32;;;7.82;;
48667;SDS011;34453;52.198;5.004;2023-08-30T09:35:17;9.07;;;8.35;;
48667;SDS011;34453;52.198;5.004;2023-08-30T09:37:46;8.13;;;7.20;;
48667;SDS011;34453;52.198;5.004;2023-08-30T09:40:11;9.20;;;8.43;;
48667;SDS011;34453;52.198;5.004;2023-08-30T09:42:40;10.13;;;9.05;;
48667;SDS011;34453;52.198;5.004;2023-08-30T09:45:19;15.38;;;8.82;;
48667;SDS011;34453;52.198;5.004;2023-08-30T09:47:47;9.93;;;9.05;;
48667;SDS011;34453;52.198;5.004;2023-08-30T09:50:15;9.50;;;8.80;;
48667;SDS011;34453;52.198;5.004;2023-08-30T09:52:49;8.38;;;7.78;;
48667;SDS011;34453;52.198;5.004;2023-08-30T09:55:16;8.00;;;7.40;;
48667;SDS011;34453;52.198;5.004;2023-08-30T09:57:43;7.15;;;6.53;;
48667;SDS011;34453;52.198;5.004;2023-08-30T10:00:09;6.00;;;5.60;;
48667;SDS011;34453;52.198;5.004;2023-08-30T10:02:39;4.63;;;4.43;;
48667;SDS011;34453;52.198;5.004;2023-08-30T10:05:08;5.07;;;4.68;;
48667;SDS011;34453;52.198;5.004;2023-08-30T10:07:35;3.35;;;3.08;;
48667;SDS011;34453;52.198;5.004;2023-08-30T10:10:02;4.38;;;3.65;;
48667;SDS011;34453;52.198;5.004;2023-08-30T10:12:29;2.30;;;2.20;;
48667;SDS011;34453;52.198;5.004;2023-08-30T10:14:57;4.53;;;2.10;;
48667;SDS011;34453;52.198;5.004;2023-08-30T10:17:23;2.40;;;2.00;;
48667;SDS011;34453;52.198;5.004;2023-08-30T10:19:57;2.70;;;2.00;;
48667;SDS011;34453;52.198;5.004;2023-08-30T10:22:25;2.70;;;2.05;;
48667;SDS011;34453;52.198;5.004;2023-08-30T10:24:53;2.55;;;1.63;;
48667;SDS011;34453;52.198;5.004;2023-08-30T10:27:21;2.17;;;1.50;;
48667;SDS011;34453;52.198;5.004;2023-08-30T10:29:49;8.45;;;2.92;;
48667;SDS011;34453;52.198;5.004;2023-08-30T10:32:19;3.92;;;1.92;;
48667;SDS011;34453;52.198;5.004;2023-08-30T10:34:47;6.43;;;2.70;;
48667;SDS011;34453;52.198;5.004;2023-08-30T10:37:14;2.70;;;2.05;;
48667;SDS011;34453;52.198;5.004;2023-08-30T10:39:40;4.22;;;2.40;;
48667;SDS011;34453;52.198;5.004;2023-08-30T10:42:10;5.32;;;2.38;;
48667;SDS011;34453;52.198;5.004;2023-08-30T10:44:50;3.10;;;2.70;;
48667;SDS011;34453;52.198;5.004;2023-08-30T10:47:27;3.30;;;2.40;;
48667;SDS011;34453;52.198;5.004;2023-08-30T10:49:54;5.90;;;2.38;;
48667;SDS011;34453;52.198;5.004;2023-08-30T10:52:21;7.05;;;2.83;;
48667;SDS011;34453;52.198;5.004;2023-08-30T10:54:47;4.60;;;2.78;;
48667;SDS011;34453;52.198;5.004;2023-08-30T10:57:19;3.47;;;2.63;;
48667;SDS011;34453;52.198;5.004;2023-08-30T11:02:35;8.52;;;2.55;;
48667;SDS011;34453;52.198;5.004;2023-08-30T11:05:02;6.22;;;2.28;;
48667;SDS011;34453;52.198;5.004;2023-08-30T11:07:28;6.65;;;1.98;;
48667;SDS011;34453;52.198;5.004;2023-08-30T11:09:54;3.08;;;1.80;;
48667;SDS011;34453;52.198;5.004;2023-08-30T11:12:20;7.55;;;2.28;;
48667;SDS011;34453;52.198;5.004;2023-08-30T11:14:51;10.32;;;2.58;;
48667;SDS011;34453;52.198;5.004;2023-08-30T11:17:17;6.18;;;1.92;;
48667;SDS011;34453;52.198;5.004;2023-08-30T11:19:42;5.05;;;1.50;;
48667;SDS011;34453;52.198;5.004;2023-08-30T11:22:08;10.20;;;1.80;;
48667;SDS011;34453;52.198;5.004;2023-08-30T11:24:34;7.43;;;1.98;;
48667;SDS011;34453;52.198;5.004;2023-08-30T11:26:59;6.40;;;2.97;;
48667;SDS011;34453;52.198;5.004;2023-08-30T11:29:26;5.57;;;2.63;;
48667;SDS011;34453;52.198;5.004;2023-08-30T11:31:52;6.20;;;2.15;;
48667;SDS011;34453;52.198;5.004;2023-08-30T11:34:19;5.25;;;2.33;;
48667;SDS011;34453;52.198;5.004;2023-08-30T11:36:47;7.95;;;2.15;;
48667;SDS011;34453;52.198;5.004;2023-08-30T11:39:13;4.95;;;2.13;;
48667;SDS011;34453;52.198;5.004;2023-08-30T11:41:39;14.32;;;2.20;;
48667;SDS011;34453;52.198;5.004;2023-08-30T11:44:05;12.68;;;2.28;;
48667;SDS011;34453;52.198;5.004;2023-08-30T11:46:30;11.10;;;3.40;;
48667;SDS011;34453;52.198;5.004;2023-08-30T11:48:57;7.70;;;2.10;;
48667;SDS011;34453;52.198;5.004;2023-08-30T11:51:22;5.82;;;1.75;;
48667;SDS011;34453;52.198;5.004;2023-08-30T11:53:48;5.45;;;2.53;;
48667;SDS011;34453;52.198;5.004;2023-08-30T11:56:14;5.82;;;1.75;;
48667;SDS011;34453;52.198;5.004;2023-08-30T11:58:41;7.10;;;1.50;;
48667;SDS011;34453;52.198;5.004;2023-08-30T12:01:08;12.60;;;2.22;;
48667;SDS011;34453;52.198;5.004;2023-08-30T12:03:34;9.52;;;2.92;;
48667;SDS011;34453;52.198;5.004;2023-08-30T12:05:59;13.32;;;2.05;;
48667;SDS011;34453;52.198;5.004;2023-08-30T12:08:27;5.93;;;1.48;;
48667;SDS011;34453;52.198;5.004;2023-08-30T12:10:55;10.40;;;2.17;;
48667;SDS011;34453;52.198;5.004;2023-08-30T12:13:28;6.80;;;1.58;;
48667;SDS011;34453;52.198;5.004;2023-08-30T12:15:55;6.43;;;2.20;;
48667;SDS011;34453;52.198;5.004;2023-08-30T12:18:25;5.45;;;2.03;;
48667;SDS011;34453;52.198;5.004;2023-08-30T12:20:59;3.67;;;1.67;;
48667;SDS011;34453;52.198;5.004;2023-08-30T12:23:27;8.73;;;1.65;;
48667;SDS011;34453;52.198;5.004;2023-08-30T12:25:58;10.52;;;1.48;;
48667;SDS011;34453;52.198;5.004;2023-08-30T12:28:28;4.57;;;1.92;;
48667;SDS011;34453;52.198;5.004;2023-08-30T12:30:54;5.93;;;1.70;;
48667;SDS011;34453;52.198;5.004;2023-08-30T12:33:20;6.85;;;1.73;;
48667;SDS011;34453;52.198;5.004;2023-08-30T12:35:46;7.18;;;1.63;;
48667;SDS011;34453;52.198;5.004;2023-08-30T12:38:12;5.93;;;1.90;;
48667;SDS011;34453;52.198;5.004;2023-08-30T12:40:41;9.02;;;1.88;;
48667;SDS011;34453;52.198;5.004;2023-08-30T12:43:07;4.00;;;1.27;;
48667;SDS011;34453;52.198;5.004;2023-08-30T12:45:33;12.70;;;1.70;;
48667;SDS011;34453;52.198;5.004;2023-08-30T12:47:58;3.15;;;1.33;;
48667;SDS011;34453;52.198;5.004;2023-08-30T12:50:24;4.25;;;1.30;;
48667;SDS011;34453;52.198;5.004;2023-08-30T12:52:49;4.63;;;1.30;;
48667;SDS011;34453;52.198;5.004;2023-08-30T12:55:15;5.38;;;1.60;;
48667;SDS011;34453;52.198;5.004;2023-08-30T12:57:42;7.47;;;1.40;;
48667;SDS011;34453;52.198;5.004;2023-08-30T13:00:09;2.40;;;0.90;;
48667;SDS011;34453;52.198;5.004;2023-08-30T13:02:35;6.50;;;1.50;;
48667;SDS011;34453;52.198;5.004;2023-08-30T13:05:00;3.72;;;2.35;;
48667;SDS011;34453;52.198;5.004;2023-08-30T13:07:26;6.90;;;1.80;;
48667;SDS011;34453;52.198;5.004;2023-08-30T13:09:51;6.10;;;1.92;;
48667;SDS011;34453;52.198;5.004;2023-08-30T13:12:17;4.32;;;1.52;;
48667;SDS011;34453;52.198;5.004;2023-08-30T13:14:42;4.53;;;1.83;;
48667;SDS011;34453;52.198;5.004;2023-08-30T13:17:08;6.88;;;1.60;;
48667;SDS011;34453;52.198;5.004;2023-08-30T13:19:33;1.98;;;1.10;;
48667;SDS011;34453;52.198;5.004;2023-08-30T13:21:59;5.63;;;1.70;;
48667;SDS011;34453;52.198;5.004;2023-08-30T13:24:24;2.22;;;1.20;;
48667;SDS011;34453;52.198;5.004;2023-08-30T13:26:50;5.60;;;1.13;;
48667;SDS011;34453;52.198;5.004;2023-08-30T13:29:15;10.82;;;2.15;;
48667;SDS011;34453;52.198;5.004;2023-08-30T13:31:41;5.93;;;1.42;;
48667;SDS011;34453;52.198;5.004;2023-08-30T13:34:06;11.40;;;1.95;;
48667;SDS011;34453;52.198;5.004;2023-08-30T13:36:32;4.18;;;1.50;;
48667;SDS011;34453;52.198;5.004;2023-08-30T13:38:57;9.68;;;1.45;;
48667;SDS011;34453;52.198;5.004;2023-08-30T13:41:23;5.50;;;2.33;;
48667;SDS011;34453;52.198;5.004;2023-08-30T13:43:48;2.88;;;1.10;;
48667;SDS011;34453;52.198;5.004;2023-08-30T13:46:13;4.47;;;1.60;;
48667;SDS011;34453;52.198;5.004;2023-08-30T13:48:39;4.18;;;1.40;;
48667;SDS011;34453;52.198;5.004;2023-08-30T13:51:04;2.72;;;1.38;;
48667;SDS011;34453;52.198;5.004;2023-08-30T13:53:30;1.55;;;1.00;;
48667;SDS011;34453;52.198;5.004;2023-08-30T13:55:55;2.90;;;0.90;;
48667;SDS011;34453;52.198;5.004;2023-08-30T13:58:21;6.25;;;1.65;;
48667;SDS011;34453;52.198;5.004;2023-08-30T14:00:46;4.93;;;1.05;;
48667;SDS011;34453;52.198;5.004;2023-08-30T14:03:12;2.17;;;0.73;;
48667;SDS011;34453;52.198;5.004;2023-08-30T14:05:37;4.38;;;1.20;;
48667;SDS011;34453;52.198;5.004;2023-08-30T14:08:05;4.30;;;0.93;;
48667;SDS011;34453;52.198;5.004;2023-08-30T14:10:31;5.45;;;1.42;;
48667;SDS011;34453;52.198;5.004;2023-08-30T14:12:57;2.08;;;0.95;;
48667;SDS011;34453;52.198;5.004;2023-08-30T14:15:22;3.10;;;0.90;;
48667;SDS011;34453;52.198;5.004;2023-08-30T14:17:48;3.97;;;0.80;;
48667;SDS011;34453;52.198;5.004;2023-08-30T14:20:13;1.92;;;0.73;;
48667;SDS011;34453;52.198;5.004;2023-08-30T14:22:39;4.00;;;1.02;;
48667;SDS011;34453;52.198;5.004;2023-08-30T14:25:04;4.38;;;1.00;;
48667;SDS011;34453;52.198;5.004;2023-08-30T14:27:30;3.63;;;1.02;;
48667;SDS011;34453;52.198;5.004;2023-08-30T14:29:55;4.03;;;0.90;;
48667;SDS011;34453;52.198;5.004;2023-08-30T14:32:21;4.00;;;0.88;;
48667;SDS011;34453;52.198;5.004;2023-08-30T14:34:47;0.85;;;0.70;;
48667;SDS011;34453;52.198;5.004;2023-08-30T14:37:12;8.45;;;1.23;;
48667;SDS011;34453;52.198;5.004;2023-08-30T14:39:37;6.00;;;1.00;;
48667;SDS011;34453;52.198;5.004;2023-08-30T14:42:03;2.28;;;0.98;;
48667;SDS011;34453;52.198;5.004;2023-08-30T14:44:28;2.20;;;0.82;;
48667;SDS011;34453;52.198;5.004;2023-08-30T14:46:54;2.47;;;1.00;;